createdAt,value
2018-04-15T00:00:09.730Z,59.97
2018-04-15T00:02:37.260Z,58.73
2018-04-15T00:05:04.818Z,61.40
2018-04-15T00:07:32.381Z,61.93
2018-04-15T00:09:59.890Z,63.17
2018-04-15T00:12:27.428Z,63.67
2018-04-15T00:14:55.273Z,58.97
2018-04-15T00:17:22.806Z,60.93
2018-04-15T00:19:50.589Z,56.67
2018-04-15T00:22:18.888Z,57.03
2018-04-15T00:24:46.455Z,58.70
2018-04-15T00:27:13.996Z,57.90
2018-04-15T00:29:41.541Z,54.90
2018-04-15T00:32:09.111Z,54.60
2018-04-15T00:34:36.678Z,53.40
2018-04-15T00:37:04.236Z,55.03
2018-04-15T00:39:31.779Z,51.67
2018-04-15T00:41:59.318Z,50.80
2018-04-15T00:44:26.850Z,51.17
2018-04-15T00:46:54.423Z,53.90
2018-04-15T00:49:21.961Z,52.33
2018-04-15T00:51:49.490Z,51.60
2018-04-15T00:54:18.002Z,48.33
2018-04-15T00:56:45.598Z,50.73
2018-04-15T00:59:13.156Z,50.07
2018-04-15T01:01:40.715Z,50.90
2018-04-15T01:04:08.527Z,48.80
2018-04-15T01:06:36.070Z,50.10
2018-04-15T01:09:03.602Z,47.00
2018-04-15T01:11:31.215Z,46.27
2018-04-15T01:13:59.027Z,46.93
2018-04-15T01:16:26.979Z,44.67
2018-04-15T01:18:54.618Z,45.67
2018-04-15T01:21:22.146Z,43.10
2018-04-15T01:23:50.035Z,43.40
2018-04-15T01:26:18.250Z,44.77
2018-04-15T01:28:45.823Z,44.00
2018-04-15T01:31:13.378Z,43.43
2018-04-15T01:33:40.941Z,42.90
2018-04-15T01:36:08.753Z,39.23
2018-04-15T01:38:36.306Z,40.40
2018-04-15T01:41:03.822Z,40.23
2018-04-15T01:43:31.382Z,42.13
2018-04-15T01:45:58.907Z,37.37
2018-04-15T01:48:26.443Z,39.00
2018-04-15T01:50:54.162Z,37.90
2018-04-15T01:53:21.681Z,37.33
2018-04-15T01:55:49.282Z,38.40
2018-04-15T01:58:16.811Z,37.50
2018-04-15T02:00:44.331Z,37.70
2018-04-15T02:03:11.906Z,37.67
2018-04-15T02:05:39.428Z,38.30
2018-04-15T02:08:07.835Z,36.50
2018-04-15T02:10:35.943Z,37.03
2018-04-15T02:13:03.584Z,39.73
2018-04-15T02:15:31.124Z,38.20
2018-04-15T02:17:58.660Z,39.00
2018-04-15T02:20:26.818Z,36.67
2018-04-15T02:22:54.346Z,35.37
2018-04-15T02:25:21.929Z,38.73
2018-04-15T02:27:49.468Z,38.33
2018-04-15T02:30:17.000Z,36.80
2018-04-15T02:32:44.564Z,36.07
2018-04-15T02:35:12.086Z,35.13
2018-04-15T02:37:39.608Z,36.43
2018-04-15T02:40:07.154Z,37.83
2018-04-15T02:42:34.692Z,37.80
2018-04-15T02:45:02.356Z,36.83
2018-04-15T02:47:29.976Z,37.80
2018-04-15T02:49:57.501Z,34.50
2018-04-15T02:52:25.048Z,35.70
2018-04-15T02:54:52.850Z,34.60
2018-04-15T02:57:20.476Z,35.47
2018-04-15T02:59:47.990Z,34.50
2018-04-15T03:02:15.504Z,36.97
2018-04-15T03:04:43.063Z,34.60
2018-04-15T03:07:10.603Z,36.07
2018-04-15T03:09:38.159Z,37.10
2018-04-15T03:12:05.684Z,34.83
2018-04-15T03:14:33.228Z,38.43
2018-04-15T03:17:00.752Z,39.30
2018-04-15T03:19:28.275Z,40.03
2018-04-15T03:21:55.832Z,38.93
2018-04-15T03:24:23.456Z,40.40
2018-04-15T03:26:50.982Z,41.00
2018-04-15T03:29:18.516Z,42.33
2018-04-15T03:31:46.038Z,43.67
2018-04-15T03:34:13.590Z,42.87
2018-04-15T03:36:41.138Z,44.00
2018-04-15T03:39:08.681Z,42.63
2018-04-15T03:41:36.261Z,47.57
2018-04-15T03:44:03.789Z,46.17
2018-04-15T03:46:31.342Z,46.57
2018-04-15T03:48:58.873Z,49.27
2018-04-15T03:51:26.399Z,50.10
2018-04-15T03:53:53.932Z,49.23
2018-04-15T03:56:21.450Z,52.03
2018-04-15T03:58:49.005Z,51.27
2018-04-15T04:01:16.520Z,49.77
2018-04-15T04:03:44.026Z,52.57
2018-04-15T04:06:11.562Z,54.00
2018-04-15T04:08:39.113Z,56.10
2018-04-15T04:11:06.688Z,53.00
2018-04-15T04:13:34.410Z,52.07
2018-04-15T04:16:01.962Z,55.00
2018-04-15T04:21:43.502Z,52.40
2018-04-15T04:24:22.869Z,52.80
2018-04-15T04:26:50.428Z,54.10
2018-04-15T04:29:17.968Z,54.13
2018-04-15T04:31:45.567Z,53.57
2018-04-15T04:34:13.091Z,51.27
2018-04-15T04:36:40.643Z,50.50
2018-04-15T04:39:08.585Z,50.23
2018-04-15T04:41:36.112Z,50.30
2018-04-15T04:44:03.673Z,49.67
2018-04-15T04:46:31.190Z,50.20
2018-04-15T04:48:59.017Z,50.23
2018-04-15T04:51:26.558Z,49.13
2018-04-15T04:53:54.110Z,50.70
2018-04-15T04:56:21.669Z,51.47
2018-04-15T04:58:49.467Z,53.20
2018-04-15T05:01:16.988Z,52.63
2018-04-15T05:03:44.508Z,51.67
2018-04-15T05:06:12.040Z,53.63
2018-04-15T05:08:39.645Z,53.43
2018-04-15T05:11:07.234Z,53.20
2018-04-15T05:13:34.820Z,54.30
2018-04-15T05:16:02.333Z,49.80
2018-04-15T05:18:29.946Z,51.57
2018-04-15T05:20:57.478Z,54.50
2018-04-15T05:23:25.065Z,51.10
2018-04-15T05:25:52.795Z,50.50
2018-04-15T05:28:20.322Z,50.70
2018-04-15T05:30:47.887Z,49.97
2018-04-15T05:33:15.402Z,50.27
2018-04-15T05:35:43.073Z,45.10
2018-04-15T05:38:10.664Z,50.50
2018-04-15T05:40:38.189Z,48.40
2018-04-15T05:43:05.725Z,45.50
2018-04-15T05:45:33.341Z,44.43
2018-04-15T05:48:00.899Z,45.73
2018-04-15T05:50:28.432Z,45.57
2018-04-15T05:52:55.940Z,41.30
2018-04-15T05:55:23.481Z,40.93
2018-04-15T05:57:51.055Z,40.00
2018-04-15T06:00:18.705Z,39.63
2018-04-15T06:02:46.479Z,38.37
2018-04-15T06:05:14.027Z,37.20
2018-04-15T06:07:41.551Z,36.90
2018-04-15T06:10:09.337Z,39.67
2018-04-15T06:12:36.906Z,36.57
2018-04-15T06:15:04.462Z,37.03
2018-04-15T06:17:32.320Z,36.47
2018-04-15T06:19:59.859Z,37.73
2018-04-15T06:22:27.446Z,37.00
2018-04-15T06:24:55.075Z,34.10
2018-04-15T06:27:22.610Z,34.50
2018-04-15T06:29:50.429Z,34.83
2018-04-15T06:32:18.066Z,34.40
2018-04-15T06:34:45.612Z,34.00
2018-04-15T06:37:13.424Z,32.97
2018-04-15T06:39:41.287Z,33.93
2018-04-15T06:42:08.814Z,34.77
2018-04-15T06:44:36.391Z,32.47
2018-04-15T06:47:03.945Z,33.13
2018-04-15T06:49:31.472Z,33.13
2018-04-15T06:51:59.031Z,30.33
2018-04-15T06:54:26.615Z,32.77
2018-04-15T06:56:54.385Z,31.23
2018-04-15T06:59:21.924Z,33.57
2018-04-15T07:01:49.428Z,32.37
2018-04-15T07:04:16.976Z,32.80
2018-04-15T07:06:44.498Z,32.53
2018-04-15T07:09:12.048Z,32.33
2018-04-15T07:11:39.890Z,30.47
2018-04-15T07:14:07.583Z,29.53
2018-04-15T07:16:35.201Z,29.97
2018-04-15T07:19:02.744Z,31.03
2018-04-15T07:21:30.336Z,30.47
2018-04-15T07:23:57.881Z,30.23
2018-04-15T07:26:25.478Z,30.73
2018-04-15T07:28:53.039Z,28.93
2018-04-15T07:31:20.733Z,27.63
2018-04-15T07:33:48.243Z,27.37
2018-04-15T07:36:16.053Z,27.60
2018-04-15T07:38:43.610Z,26.87
2018-04-15T07:41:11.177Z,26.30
2018-04-15T07:43:38.701Z,25.40
2018-04-15T07:46:07.066Z,26.80
2018-04-15T07:48:34.713Z,26.63
2018-04-15T07:51:02.266Z,25.53
2018-04-15T07:53:29.832Z,24.47
2018-04-15T07:55:57.383Z,22.53
2018-04-15T07:58:24.931Z,22.10
2018-04-15T08:00:52.646Z,21.70
2018-04-15T08:03:20.178Z,22.27
2018-04-15T08:05:48.242Z,22.07
2018-04-15T08:08:15.846Z,23.10
2018-04-15T08:10:43.467Z,22.03
2018-04-15T08:13:11.364Z,22.63
2018-04-15T08:15:38.882Z,22.40
2018-04-15T08:18:06.707Z,22.50
2018-04-15T08:20:34.291Z,19.70
2018-04-15T08:23:02.041Z,22.77
2018-04-15T08:25:29.575Z,19.80
2018-04-15T08:27:57.106Z,20.00
2018-04-15T08:30:24.650Z,18.53
2018-04-15T08:32:52.214Z,18.73
2018-04-15T08:35:19.758Z,20.10
2018-04-15T08:37:48.045Z,18.13
2018-04-15T08:40:15.863Z,17.07
2018-04-15T08:42:43.990Z,18.90
2018-04-15T08:45:11.559Z,17.53
2018-04-15T08:47:39.136Z,17.70
2018-04-15T08:50:07.124Z,23.40
2018-04-15T08:52:34.682Z,24.30
2018-04-15T08:55:02.343Z,17.87
2018-04-15T08:57:29.900Z,16.93
2018-04-15T08:59:57.430Z,17.40
2018-04-15T09:02:24.982Z,16.87
2018-04-15T09:04:52.816Z,16.40
2018-04-15T09:07:20.676Z,17.17
2018-04-15T09:09:48.219Z,15.70
2018-04-15T09:12:16.551Z,21.43
2018-04-15T09:14:44.122Z,17.17
2018-04-15T09:17:11.691Z,17.10
2018-04-15T09:19:39.544Z,16.20
2018-04-15T09:22:07.282Z,15.73
2018-04-15T09:24:37.088Z,16.53
2018-04-15T09:27:05.983Z,16.17
2018-04-15T09:29:34.448Z,16.87
2018-04-15T09:32:02.323Z,14.50
2018-04-15T09:34:31.712Z,14.37
2018-04-15T09:36:59.434Z,14.03
2018-04-15T09:39:27.124Z,15.27
2018-04-15T09:41:54.654Z,14.73
2018-04-15T09:44:22.195Z,14.30
2018-04-15T09:46:49.723Z,15.43
2018-04-15T09:49:17.801Z,14.07
2018-04-15T09:51:45.410Z,13.90
2018-04-15T09:54:12.988Z,14.07
2018-04-15T09:56:42.390Z,13.53
2018-04-15T09:59:10.004Z,13.93
2018-04-15T10:01:37.526Z,13.93
2018-04-15T10:04:05.090Z,12.57
2018-04-15T10:06:32.661Z,12.87
2018-04-15T10:09:00.187Z,12.70
2018-04-15T10:11:27.746Z,12.37
2018-04-15T10:13:55.560Z,17.70
2018-04-15T10:16:23.926Z,12.60
2018-04-15T10:18:51.463Z,13.53
2018-04-15T10:21:18.996Z,13.13
2018-04-15T10:23:46.579Z,12.70
2018-04-15T10:26:14.228Z,12.83
2018-04-15T10:28:42.050Z,12.20
2018-04-15T10:31:09.921Z,12.40
2018-04-15T10:33:38.238Z,11.53
2018-04-15T10:36:05.867Z,12.53
2018-04-15T10:38:33.695Z,12.17
2018-04-15T10:41:02.740Z,11.73
2018-04-15T10:43:30.872Z,11.60
2018-04-15T10:46:03.056Z,12.20
2018-04-15T10:48:31.375Z,11.40
2018-04-15T10:50:58.977Z,12.00
2018-04-15T10:53:26.515Z,11.43
2018-04-15T10:55:54.056Z,11.60
2018-04-15T10:58:21.599Z,12.27
2018-04-15T11:00:49.121Z,11.57
2018-04-15T11:03:16.717Z,11.80
2018-04-15T11:05:44.279Z,11.70
2018-04-15T11:08:11.817Z,11.30
2018-04-15T11:10:40.613Z,11.30
2018-04-15T11:13:08.173Z,11.60
2018-04-15T11:15:35.707Z,11.50
2018-04-15T11:18:03.335Z,11.97
2018-04-15T11:20:31.693Z,11.10
2018-04-15T11:22:59.217Z,11.03
2018-04-15T11:25:27.724Z,11.20
2018-04-15T11:27:55.278Z,10.40
2018-04-15T11:30:22.831Z,10.10
2018-04-15T11:32:51.696Z,11.00
2018-04-15T11:35:19.365Z,10.60
2018-04-15T11:37:46.978Z,10.40
2018-04-15T11:40:14.516Z,10.83
2018-04-15T11:42:42.057Z,10.00
2018-04-15T11:45:09.780Z,9.80
2018-04-15T11:47:37.319Z,10.30
2018-04-15T11:50:04.863Z,9.70
2018-04-15T11:52:32.445Z,9.70
2018-04-15T11:54:59.978Z,10.23
2018-04-15T11:57:27.527Z,10.17
2018-04-15T11:59:55.305Z,9.67
2018-04-15T12:02:22.913Z,9.57
2018-04-15T12:04:50.506Z,9.52
2018-04-15T12:07:18.031Z,9.80
2018-04-15T12:09:45.861Z,9.70
2018-04-15T12:12:13.447Z,9.40
2018-04-15T12:14:40.979Z,9.40
2018-04-15T12:17:08.526Z,9.60
2018-04-15T12:19:36.132Z,9.40
2018-04-15T12:22:03.688Z,9.40
2018-04-15T12:24:31.223Z,9.90
2018-04-15T12:26:58.793Z,8.70
2018-04-15T12:29:26.652Z,9.65
2018-04-15T12:31:54.199Z,8.97
2018-04-15T12:34:21.751Z,9.00
2018-04-15T12:36:49.540Z,9.63
2018-04-15T12:39:17.223Z,9.57
2018-04-15T12:41:44.948Z,9.33
2018-04-15T12:44:12.742Z,9.00
2018-04-15T12:46:40.312Z,9.03
2018-04-15T12:49:07.841Z,9.63
2018-04-15T12:51:35.422Z,9.10
2018-04-15T12:54:02.961Z,9.40
2018-04-15T12:56:30.847Z,10.83
2018-04-15T12:58:58.380Z,10.40
2018-04-15T13:01:25.900Z,9.63
2018-04-15T13:03:53.485Z,10.30
2018-04-15T13:06:21.020Z,9.80
2018-04-15T13:08:48.547Z,9.80
2018-04-15T13:11:16.077Z,9.43
2018-04-15T13:13:43.672Z,9.93
2018-04-15T13:16:11.434Z,10.07
2018-04-15T13:18:38.951Z,9.93
2018-04-15T13:21:06.528Z,9.87
2018-04-15T13:23:34.085Z,9.67
2018-04-15T13:26:01.619Z,9.87
2018-04-15T13:28:29.154Z,9.13
2018-04-15T13:30:56.716Z,9.20
2018-04-15T13:33:25.410Z,10.20
2018-04-15T13:35:53.251Z,9.80
2018-04-15T13:38:20.798Z,9.50
2018-04-15T13:40:48.401Z,9.80
2018-04-15T13:43:16.060Z,9.63
2018-04-15T13:45:43.585Z,9.80
2018-04-15T13:48:11.379Z,9.57
2018-04-15T13:50:39.890Z,10.77
2018-04-15T13:53:07.433Z,9.53
2018-04-15T13:55:35.183Z,10.70
2018-04-15T13:58:02.743Z,10.50
2018-04-15T14:00:30.304Z,9.70
2018-04-15T14:02:57.833Z,9.77
2018-04-15T14:05:25.391Z,9.77
2018-04-15T14:07:52.988Z,9.70
2018-04-15T14:10:20.853Z,10.17
2018-04-15T14:12:48.416Z,10.87
2018-04-15T14:15:16.024Z,10.00
2018-04-15T14:17:43.604Z,9.60
2018-04-15T14:20:11.719Z,9.70
2018-04-15T14:22:39.368Z,10.83
2018-04-15T14:25:06.998Z,9.83
2018-04-15T14:27:35.744Z,10.00
2018-04-15T14:30:03.704Z,11.77
2018-04-15T14:32:31.360Z,9.23
2018-04-15T14:34:58.930Z,9.70
2018-04-15T14:37:26.586Z,9.40
2018-04-15T14:39:54.514Z,9.20
2018-04-15T14:42:22.157Z,9.37
2018-04-15T14:44:49.831Z,9.67
2018-04-15T14:47:17.442Z,9.90
2018-04-15T14:49:45.211Z,9.20
2018-04-15T14:52:12.897Z,10.57
2018-04-15T14:54:40.712Z,10.30
2018-04-15T14:57:09.106Z,8.97
2018-04-15T14:59:36.697Z,9.80
2018-04-15T15:02:04.955Z,9.03
2018-04-15T15:04:32.822Z,9.37
2018-04-15T15:07:00.378Z,10.13
2018-04-15T15:09:27.992Z,10.07
2018-04-15T15:11:57.153Z,9.40
2018-04-15T15:14:24.677Z,9.37
2018-04-15T15:16:52.194Z,9.57
2018-04-15T15:19:19.805Z,10.03
2018-04-15T15:21:47.417Z,9.80
2018-04-15T15:24:14.946Z,10.20
2018-04-15T15:26:42.750Z,10.10
2018-04-15T15:29:10.519Z,10.00
2018-04-15T15:31:38.313Z,9.83
2018-04-15T15:34:06.153Z,9.70
2018-04-15T15:36:33.882Z,9.20
2018-04-15T15:39:01.424Z,10.03
2018-04-15T15:41:29.289Z,9.13
2018-04-15T15:43:56.937Z,10.00
2018-04-15T15:46:24.470Z,10.00
2018-04-15T15:48:52.561Z,11.90
2018-04-15T15:51:20.138Z,10.27
2018-04-15T15:53:47.692Z,10.83
2018-04-15T15:56:15.257Z,10.13
2018-04-15T15:58:42.823Z,10.00
2018-04-15T16:01:10.373Z,10.33
2018-04-15T16:03:37.893Z,9.57
2018-04-15T16:06:05.412Z,10.37
2018-04-15T16:08:33.018Z,10.37
2018-04-15T16:11:00.523Z,10.07
2018-04-15T16:13:28.107Z,10.10
2018-04-15T16:15:55.665Z,9.80
2018-04-15T16:18:23.531Z,10.00
2018-04-15T16:20:51.278Z,9.80
2018-04-15T16:23:18.808Z,10.00
2018-04-15T16:25:46.365Z,9.40
2018-04-15T16:28:13.889Z,9.70
2018-04-15T16:30:41.897Z,10.40
2018-04-15T16:33:09.437Z,9.97
2018-04-15T16:35:37.055Z,10.37
2018-04-15T16:38:04.680Z,10.13
2018-04-15T16:40:32.237Z,10.70
2018-04-15T16:42:59.803Z,10.20
2018-04-15T16:45:27.402Z,9.93
2018-04-15T16:47:55.014Z,10.10
2018-04-15T16:50:22.604Z,11.70
2018-04-15T16:52:50.202Z,12.87
2018-04-15T16:55:17.859Z,30.53
2018-04-15T16:57:45.397Z,12.07
2018-04-15T17:00:13.055Z,11.20
2018-04-15T17:02:40.538Z,10.20
2018-04-15T17:05:08.078Z,10.00
2018-04-15T17:07:35.603Z,9.47
2018-04-15T17:10:03.529Z,10.30
2018-04-15T17:12:31.392Z,11.40
2018-04-15T17:14:59.054Z,10.90
2018-04-15T17:17:26.940Z,10.77
2018-04-15T17:19:54.500Z,10.60
2018-04-15T17:22:22.119Z,10.57
2018-04-15T17:24:49.683Z,11.20
2018-04-15T17:27:17.226Z,10.00
2018-04-15T17:29:45.588Z,10.37
2018-04-15T17:32:13.150Z,9.90
2018-04-15T17:34:40.918Z,10.63
2018-04-15T17:37:08.468Z,10.60
2018-04-15T17:39:38.120Z,10.50
2018-04-15T17:42:05.767Z,10.70
2018-04-15T17:44:33.366Z,10.70
2018-04-15T17:47:00.962Z,10.87
2018-04-15T17:49:28.549Z,10.37
2018-04-15T17:51:56.343Z,11.77
2018-04-15T17:54:24.164Z,11.10
2018-04-15T17:56:51.815Z,10.57
2018-04-15T17:59:19.422Z,10.90
2018-04-15T18:01:47.011Z,11.17
2018-04-15T18:04:14.686Z,10.50
2018-04-15T18:06:42.293Z,11.27
2018-04-15T18:09:12.170Z,11.50
2018-04-15T18:11:42.119Z,11.00
2018-04-15T18:14:11.926Z,12.30
2018-04-15T18:16:39.784Z,11.90
2018-04-15T18:19:07.362Z,11.90
2018-04-15T18:21:34.941Z,11.60
2018-04-15T18:24:02.548Z,11.30
2018-04-15T18:26:30.109Z,11.53
2018-04-15T18:28:57.643Z,12.80
2018-04-15T18:31:25.262Z,12.50
2018-04-15T18:33:52.810Z,12.33
2018-04-15T18:36:20.416Z,11.50
2018-04-15T18:38:48.475Z,12.43
2018-04-15T18:41:16.087Z,11.83
2018-04-15T18:43:43.657Z,12.90
2018-04-15T18:46:11.200Z,13.17
2018-04-15T18:48:38.917Z,12.77
2018-04-15T18:51:06.449Z,12.30
2018-04-15T18:53:34.013Z,12.30
2018-04-15T18:56:01.620Z,12.77
2018-04-15T18:58:29.316Z,11.90
2018-04-15T19:00:56.838Z,13.00
2018-04-15T19:03:24.382Z,12.20
2018-04-15T19:05:51.946Z,14.17
2018-04-15T19:08:19.494Z,13.57
2018-04-15T19:10:47.153Z,13.47
2018-04-15T19:13:14.735Z,13.00
2018-04-15T19:15:42.446Z,13.70
2018-04-15T19:18:09.991Z,15.23
2018-04-15T19:20:37.521Z,16.77
2018-04-15T19:23:05.052Z,15.93
2018-04-15T19:25:32.570Z,15.57
2018-04-15T19:28:01.615Z,14.40
2018-04-15T19:30:29.399Z,14.00
2018-04-15T19:32:56.991Z,14.57
2018-04-15T19:35:24.568Z,14.20
2018-04-15T19:37:52.082Z,14.23
2018-04-15T19:40:20.180Z,13.93
2018-04-15T19:42:47.744Z,14.20
2018-04-15T19:45:15.449Z,14.70
2018-04-15T19:47:42.965Z,13.33
2018-04-15T19:50:10.651Z,14.03
2018-04-15T19:52:38.228Z,13.40
2018-04-15T19:55:06.179Z,14.07
2018-04-15T19:57:33.863Z,13.03
2018-04-15T20:00:02.254Z,14.97
2018-04-15T20:02:30.813Z,14.20
2018-04-15T20:04:59.787Z,13.43
2018-04-15T20:07:27.873Z,12.93
2018-04-15T20:09:55.812Z,16.43
2018-04-15T20:12:24.870Z,14.10
2018-04-15T20:14:52.432Z,13.40
2018-04-15T20:17:20.047Z,14.10
2018-04-15T20:19:47.852Z,13.70
2018-04-15T20:22:15.434Z,13.67
2018-04-15T20:24:43.054Z,14.23
2018-04-15T20:27:11.091Z,13.70
2018-04-15T20:29:38.793Z,14.40
2018-04-15T20:32:06.343Z,14.30
2018-04-15T20:34:33.970Z,13.90
2018-04-15T20:37:01.566Z,14.80
2018-04-15T20:39:29.552Z,13.77
2018-04-15T20:41:57.376Z,14.83
2018-04-15T20:44:25.002Z,13.60
2018-04-15T20:46:52.598Z,14.33
2018-04-15T20:49:20.390Z,14.50
2018-04-15T20:51:47.936Z,14.90
2018-04-15T20:54:15.476Z,14.43
2018-04-15T20:56:43.037Z,13.93
2018-04-15T20:59:10.637Z,15.80
2018-04-15T21:01:38.256Z,15.57
2018-04-15T21:04:05.839Z,14.10
2018-04-15T21:06:33.450Z,15.20
2018-04-15T21:09:00.968Z,15.13
2018-04-15T21:11:28.849Z,15.10
2018-04-15T21:13:56.421Z,14.73
2018-04-15T21:16:23.963Z,15.97
2018-04-15T21:18:52.910Z,16.60
2018-04-15T21:21:20.617Z,16.60
2018-04-15T21:23:48.200Z,17.03
2018-04-15T21:26:15.739Z,15.87
2018-04-15T21:28:43.375Z,17.93
2018-04-15T21:31:10.917Z,16.00
2018-04-15T21:33:38.499Z,15.93
2018-04-15T21:36:06.038Z,16.90
2018-04-15T21:38:33.679Z,16.90
2018-04-15T21:41:01.519Z,16.63
2018-04-15T21:43:29.028Z,17.53
2018-04-15T21:45:56.602Z,18.57
2018-04-15T21:48:24.121Z,17.23
2018-04-15T21:50:51.672Z,17.00
2018-04-15T21:53:19.524Z,18.37
2018-04-15T21:55:47.051Z,17.07
2018-04-15T21:58:14.591Z,19.30
2018-04-15T22:00:42.113Z,18.73
2018-04-15T22:03:09.663Z,18.80
2018-04-15T22:05:37.189Z,18.40
2018-04-15T22:08:04.955Z,19.00
2018-04-15T22:10:32.486Z,19.90
2018-04-15T22:13:05.061Z,19.70
2018-04-15T22:15:32.570Z,21.60
2018-04-15T22:18:00.114Z,21.47
2018-04-15T22:20:27.656Z,20.00
2018-04-15T22:22:55.279Z,21.60
2018-04-15T22:25:23.556Z,21.33
2018-04-15T22:27:51.081Z,21.73
2018-04-15T22:30:18.635Z,20.43
2018-04-15T22:32:46.195Z,20.93
2018-04-15T22:35:13.744Z,21.87
2018-04-15T22:37:41.366Z,21.93
2018-04-15T22:40:09.223Z,21.20
2018-04-15T22:42:36.783Z,22.33
2018-04-15T22:45:04.378Z,21.17
2018-04-15T22:47:31.931Z,22.17
2018-04-15T22:50:04.912Z,21.63
2018-04-15T22:52:32.447Z,21.67
2018-04-15T22:54:59.989Z,23.67
2018-04-15T22:57:27.518Z,22.00
2018-04-15T22:59:55.052Z,22.80
2018-04-15T23:02:22.619Z,22.50
2018-04-15T23:04:50.133Z,22.63
2018-04-15T23:07:17.657Z,23.17
2018-04-15T23:09:45.297Z,23.90
2018-04-15T23:12:12.821Z,22.80
2018-04-15T23:14:40.383Z,21.77
2018-04-15T23:17:07.987Z,22.57
2018-04-15T23:19:35.533Z,23.20
2018-04-15T23:22:03.131Z,24.90
2018-04-15T23:24:30.679Z,23.70
2018-04-15T23:26:58.244Z,22.70
2018-04-15T23:29:25.837Z,24.40
2018-04-15T23:31:53.344Z,23.63
2018-04-15T23:34:20.891Z,24.23
2018-04-15T23:36:48.431Z,23.67
2018-04-15T23:39:16.010Z,23.60
2018-04-15T23:41:43.774Z,24.43
2018-04-15T23:44:11.648Z,24.10
2018-04-15T23:46:39.210Z,24.13
2018-04-15T23:49:07.172Z,24.90
2018-04-15T23:51:35.044Z,23.67
2018-04-15T23:54:02.593Z,25.37
2018-04-15T23:56:30.110Z,24.93
2018-04-15T23:58:57.656Z,26.00
